Wilkerson Pass, CO

9:09 PM MST on February 21, 2018 (GMT -0700)
Wilkerson Pass

Weather History for K4BM - February, 2014

Change the Weather History Date:

Sunday, February 23, 2014

  Actual Average (KAFF) Record (KAFF)
Temperature  
Mean Temperature 24 °F -  
Max Temperature 33 °F 39 °F 68 °F (2002)
Min Temperature 14 °F 19 °F 2 °F (2015)
Degree Days  
Heating Degree Days 42    
Moisture  
Dew Point 8 °F    
Average Humidity 54    
Maximum Humidity 86    
Minimum Humidity 35    
Precipitation  
Precipitation 0.00 in - - ()
Sea Level Pressure  
Sea Level Pressure 30.03 in    
Wind  
Wind Speed 12 mph (SW)    
Max Wind Speed 21 mph    
Max Gust Speed 36 mph    
Visibility 10 miles    
Events      
Averages and records for this station are not official NWS values.
T = Trace of Precipitation, MM = Missing Value Source: NWS Daily Summary

Daily Weather History Graph

Daily Weather History Graph

Search for Another Location

Airport or City:

Trip Planner

Search our weather history database for the weather conditions in past years. The results will help you decide how hot, cold, wet, or windy it might be!

Date:

Astronomy

Feb. 23, 2014 Rise Set
Actual Time 6:42 AM MST 5:48 PM MST
Civil Twilight 6:15 AM MST 6:15 PM MST
Nautical Twilight 5:44 AM MST 6:46 PM MST
Astronomical Twilight 5:14 AM MST 7:17 PM MST
Moon 1:42 AM MST (2/23) 11:54 AM MST (2/23)
Length of Visible Light 11h 59m
Length of Day
11h 05m
Last Quarter, 38% of the Moon is Illuminated
Feb 23
Last Quarter
Mar 1
New
Mar 8
First Quarter
Mar 16
Full
Mar 23
Last Quarter

Hourly Weather History & Observations

Time (MST) Temp. Windchill Dew Point Humidity Pressure Visibility Wind Dir Wind Speed Gust Speed Precip Events Conditions
12:00 AM 15.8 °F 3.4 °F 10.4 °F 79% 29.93 in 10.0 mi WSW 10.4 mph 18.4 mph N/A   Scattered Clouds
12:20 AM 15.8 °F 4.2 °F 10.4 °F 79% 29.94 in 10.0 mi WSW 9.2 mph - N/A   Mostly Cloudy
12:39 AM 15.8 °F 5.1 °F 10.4 °F 79% 29.94 in 10.0 mi SW 8.1 mph 19.6 mph N/A   Scattered Clouds
1:00 AM 15.8 °F 4.2 °F 10.4 °F 79% 29.94 in 10.0 mi WSW 9.2 mph 21.9 mph N/A   Mostly Cloudy
1:20 AM 15.8 °F 3.4 °F 10.4 °F 79% 29.94 in 10.0 mi WSW 10.4 mph 23.0 mph N/A   Mostly Cloudy
1:40 AM 14.0 °F 2.0 °F 10.4 °F 86% 29.94 in 10.0 mi WSW 9.2 mph 20.7 mph N/A   Scattered Clouds
2:00 AM 15.8 °F 3.4 °F 10.4 °F 79% 29.94 in 10.0 mi WSW 10.4 mph 24.2 mph N/A   Clear
2:20 AM 15.8 °F 2.1 °F 10.4 °F 79% 29.95 in 10.0 mi WSW 12.7 mph 21.9 mph N/A   Clear
2:39 AM 15.8 °F 0.9 °F 10.4 °F 79% 29.95 in 10.0 mi West 15.0 mph 25.3 mph N/A   Scattered Clouds
2:59 AM 17.6 °F 3.2 °F 10.4 °F 73% 29.95 in 10.0 mi West 15.0 mph 35.7 mph N/A   Scattered Clouds
3:20 AM 17.6 °F 5.0 °F 8.6 °F 68% 29.95 in 10.0 mi West 11.5 mph 24.2 mph N/A   Clear
3:40 AM 15.8 °F 1.4 °F 8.6 °F 73% 29.96 in 10.0 mi West 13.8 mph 21.9 mph N/A   Clear
4:00 AM 15.8 °F 2.1 °F 8.6 °F 73% 29.96 in 10.0 mi West 12.7 mph 21.9 mph N/A   Clear
4:20 AM 15.8 °F 0.9 °F 8.6 °F 73% 29.96 in 10.0 mi West 15.0 mph 25.3 mph N/A   Scattered Clouds
4:39 AM 15.8 °F 0.3 °F 8.6 °F 73% 29.97 in 10.0 mi West 16.1 mph 27.6 mph N/A   Scattered Clouds
5:00 AM 17.6 °F 3.2 °F 8.6 °F 68% 29.97 in 10.0 mi West 15.0 mph 31.1 mph N/A   Scattered Clouds
5:19 AM 17.6 °F 3.2 °F 8.6 °F 68% 29.97 in 10.0 mi West 15.0 mph 29.9 mph N/A   Scattered Clouds
5:40 AM 17.6 °F 2.2 °F 8.6 °F 68% 29.97 in 10.0 mi West 17.3 mph 31.1 mph N/A   Scattered Clouds
5:59 AM 17.6 °F 2.2 °F 8.6 °F 68% 29.97 in 10.0 mi West 17.3 mph 31.1 mph N/A   Scattered Clouds
6:20 AM 17.6 °F 3.7 °F 8.6 °F 68% 29.98 in 10.0 mi West 13.8 mph 28.8 mph N/A   Clear
6:40 AM 17.6 °F 4.3 °F 8.6 °F 68% 29.97 in 10.0 mi West 12.7 mph 25.3 mph N/A   Clear
7:00 AM 17.6 °F 3.2 °F 8.6 °F 68% 29.98 in 10.0 mi West 15.0 mph 25.3 mph N/A   Clear
7:20 AM 17.6 °F 3.2 °F 8.6 °F 68% 29.98 in 10.0 mi WSW 15.0 mph 24.2 mph N/A   Clear
7:40 AM 19.4 °F 6.0 °F 8.6 °F 63% 29.99 in 10.0 mi WSW 13.8 mph 26.5 mph N/A   Clear
7:59 AM 19.4 °F 5.0 °F 8.6 °F 63% 29.99 in 10.0 mi SW 16.1 mph 25.3 mph N/A   Clear
8:19 AM 21.2 °F 6.4 °F 8.6 °F 58% 29.99 in 10.0 mi SW 18.4 mph 32.2 mph N/A   Clear
8:40 AM 21.2 °F 10.1 °F 8.6 °F 58% 30.02 in 10.0 mi SW 10.4 mph 23.0 mph N/A   Clear
9:00 AM 23.0 °F 12.4 °F 8.6 °F 54% 30.05 in 10.0 mi WSW 10.4 mph 16.1 mph N/A   Clear
9:20 AM 23.0 °F 13.1 °F 8.6 °F 54% 30.05 in 10.0 mi WSW 9.2 mph 24.2 mph N/A   Clear
9:39 AM 24.8 °F 14.0 °F 10.4 °F 54% 30.05 in 10.0 mi SW 11.5 mph 19.6 mph N/A   Clear
10:00 AM 26.6 °F 15.7 °F 10.4 °F 51% 30.07 in 10.0 mi SW 12.7 mph 25.3 mph N/A   Clear
10:20 AM 28.4 °F 18.0 °F 8.6 °F 43% 30.07 in 10.0 mi SW 12.7 mph 25.3 mph N/A   Clear
10:40 AM 30.2 °F 19.3 °F 8.6 °F 40% 30.08 in 10.0 mi SW 15.0 mph 25.3 mph N/A   Clear
11:00 AM 30.2 °F 18.9 °F 8.6 °F 40% 30.07 in 10.0 mi SW 16.1 mph 24.2 mph N/A   Clear
11:20 AM 30.2 °F 19.8 °F 8.6 °F 40% 30.07 in 10.0 mi SW 13.8 mph 25.3 mph N/A   Clear
11:40 AM 32.0 °F 21.6 °F 8.6 °F 38% 30.07 in 10.0 mi WSW 15.0 mph 24.2 mph N/A   Clear
12:00 PM 32.0 °F 21.6 °F 8.6 °F 38% 30.06 in 10.0 mi WSW 15.0 mph 24.2 mph N/A   Clear
12:20 PM 32.0 °F 21.6 °F 6.8 °F 35% 30.07 in 10.0 mi WSW 15.0 mph 29.9 mph N/A   Clear
12:40 PM 32.0 °F 22.5 °F 8.6 °F 38% 30.07 in 10.0 mi West 12.7 mph 24.2 mph N/A   Clear
1:00 PM 32.0 °F 22.1 °F 6.8 °F 35% 30.08 in 10.0 mi West 13.8 mph 28.8 mph N/A   Clear
1:20 PM 32.0 °F 23.6 °F 8.6 °F 38% 30.08 in 10.0 mi West 10.4 mph 24.2 mph N/A   Clear
1:40 PM 33.8 °F 25.8 °F 10.4 °F 38% 30.08 in 10.0 mi WSW 10.4 mph 19.6 mph N/A   Clear
2:00 PM 33.8 °F 25.8 °F 8.6 °F 35% 30.07 in 10.0 mi West 10.4 mph 24.2 mph N/A   Clear
2:20 PM 32.0 °F 24.2 °F 6.8 °F 35% 30.07 in 10.0 mi WSW 9.2 mph 19.6 mph N/A   Clear
2:40 PM 33.8 °F 27.0 °F 12.2 °F 41% 30.07 in 10.0 mi WSW 8.1 mph 16.1 mph N/A   Clear
3:00 PM 33.8 °F 25.8 °F 10.4 °F 38% 30.06 in 10.0 mi SW 10.4 mph 19.6 mph N/A   Clear
3:20 PM 32.0 °F 22.5 °F 10.4 °F 41% 30.06 in 10.0 mi SW 12.7 mph 25.3 mph N/A   Clear
3:40 PM 32.0 °F 22.5 °F 10.4 °F 41% 30.07 in 10.0 mi SW 12.7 mph 19.6 mph N/A   Clear
4:00 PM 32.0 °F 24.2 °F 10.4 °F 41% 30.07 in 10.0 mi SW 9.2 mph 16.1 mph N/A   Clear
4:20 PM 32.0 °F 24.8 °F 10.4 °F 41% 30.06 in 10.0 mi SW 8.1 mph 19.6 mph N/A   Clear
4:40 PM 32.0 °F 23.6 °F 10.4 °F 41% 30.07 in 10.0 mi SW 10.4 mph - N/A   Clear
5:00 PM 30.2 °F 21.3 °F 10.4 °F 44% 30.06 in 10.0 mi SW 10.4 mph 16.1 mph N/A   Clear
5:20 PM 28.4 °F 15.1 °F 8.6 °F 43% 30.02 in 10.0 mi SW 20.7 mph 35.7 mph N/A   Clear
5:40 PM 28.4 °F 15.8 °F 6.8 °F 40% 30.02 in 10.0 mi SW 18.4 mph 32.2 mph N/A   Clear
6:00 PM 26.6 °F 17.5 °F 6.8 °F 43% 30.08 in 10.0 mi SSW 9.2 mph 18.4 mph N/A   Clear
6:20 PM 26.6 °F 15.7 °F 8.6 °F 47% 30.08 in 10.0 mi SSW 12.7 mph 20.7 mph N/A   Clear
6:40 PM 24.8 °F 14.6 °F 8.6 °F 50% 30.08 in 10.0 mi SSW 10.4 mph 24.2 mph N/A   Clear
7:00 PM 24.8 °F 13.4 °F 8.6 °F 50% 30.07 in 10.0 mi SSW 12.7 mph 19.6 mph N/A   Clear
7:20 PM 24.8 °F 13.4 °F 6.8 °F 46% 30.07 in 10.0 mi SSW 12.7 mph 21.9 mph N/A   Clear
7:40 PM 24.8 °F 13.4 °F 5.0 °F 43% 30.07 in 10.0 mi SSW 12.7 mph 25.3 mph N/A   Clear
8:00 PM 23.0 °F 10.6 °F 5.0 °F 46% 30.06 in 10.0 mi SSW 13.8 mph 23.0 mph N/A   Clear
8:20 PM 23.0 °F 10.1 °F 5.0 °F 46% 30.07 in 10.0 mi SSW 15.0 mph 23.0 mph N/A   Clear
8:39 PM 23.0 °F 11.7 °F 5.0 °F 46% 30.07 in 10.0 mi SSW 11.5 mph 23.0 mph N/A   Clear
9:00 PM 23.0 °F 12.4 °F 5.0 °F 46% 30.07 in 10.0 mi SSW 10.4 mph 20.7 mph N/A   Clear
9:20 PM 23.0 °F 18.4 °F 5.0 °F 46% 30.08 in 10.0 mi SW 3.5 mph - N/A   Clear
9:40 PM 21.2 °F 14.9 °F 5.0 °F 50% 30.08 in 10.0 mi SSW 4.6 mph - N/A   Clear
10:00 PM 21.2 °F 14.9 °F 5.0 °F 50% 30.07 in 10.0 mi SW 4.6 mph - N/A   Clear
10:20 PM 23.0 °F 13.9 °F 3.2 °F 43% 30.07 in 10.0 mi WSW 8.1 mph - N/A   Clear
10:40 PM 23.0 °F 13.1 °F 3.2 °F 43% 30.06 in 10.0 mi SSW 9.2 mph - N/A   Clear
11:00 PM 23.0 °F 13.1 °F 3.2 °F 43% 30.05 in 10.0 mi SSW 9.2 mph 26.5 mph N/A   Clear
11:20 PM 21.2 °F 13.6 °F 3.2 °F 46% 30.05 in 10.0 mi SSW 5.8 mph - N/A   Clear
11:40 PM 23.0 °F 12.4 °F 3.2 °F 43% 30.04 in 10.0 mi WSW 10.4 mph 19.6 mph N/A   Scattered Clouds